CheckWX is a tool to help pilots better visualize weather data.  It is not intended as a substitute for an official pre-flight weather briefing.

00:55:14 UTC

SBMY METAR
Manicoré Airport
Manicoré, Brazil
Current

5 hours ago

SBMY 222000Z 09002KT 9999 FEW023 BKN100 30/25 Q1009
Observed
May-22 @ 20:00 UTC
Wind
  • 090° at 2 KTS
Visibility
10,000+ meters
Flight Rules
VFR
Cloud Levels
  • Few at 2,300' AGL
  • Broken at 10,000' AGL
Temperature
30°C / 86°F
Dewpoint
25°C / 77°F
Heat Index
36°C / 97°F
Humidity
75%
Altimeter
29.79" Hg
Pressure
1008.92 hPa
Previous

7 hours ago

SBMY 221800Z 18005KT 9999 FEW021 BKN100 32/25 Q1011
Observed
May-22 @ 18:00 UTC
Wind
  • 180° at 5 KTS
Visibility
10,000+ meters
Flight Rules
VFR
Cloud Levels
  • Few at 2,100' AGL
  • Broken at 10,000' AGL
Temperature
32°C / 90°F
Dewpoint
25°C / 77°F
Heat Index
40°C / 104°F
Humidity
67%
Altimeter
29.85" Hg
Pressure
1010.92 hPa
Previous

9 hours ago

SBMY 221600Z 10003KT 9999 FEW019 BKN100 31/25 Q1014
Observed
May-22 @ 16:00 UTC
Wind
  • 100° at 3 KTS
Visibility
10,000+ meters
Flight Rules
VFR
Cloud Levels
  • Few at 1,900' AGL
  • Broken at 10,000' AGL
Temperature
31°C / 88°F
Dewpoint
25°C / 77°F
Heat Index
38°C / 100°F
Humidity
70%
Altimeter
29.94" Hg
Pressure
1013.92 hPa